Time;durP1;ratioP1;P1;durP2;ratioP2;P2;SDS_P1;SDS_P2;PMS_P1;PMS_P2;Temp;Humidity;BMP_temperature;BMP_pressure;BME280_temperature;BME280_humidity;BME280_pressure;Samples;Min_cycle;Max_cycle;Signal;HPM_P1;HPM_P2
2023/03/30 00:06:25;;;;;;;5.00;1.90;;;;;;;12.79;100.00;97494.47;18294269;32;20074;-57
2023/03/30 00:16:27;;;;;;;10.83;2.27;;;;;;;13.42;100.00;97489.94;18295464;32;20054;-57
2023/03/30 00:26:30;;;;;;;8.40;1.83;;;;;;;13.96;100.00;97497.81;18304168;32;20058;-57
2023/03/30 00:36:36;;;;;;;5.35;1.08;;;;;;;14.34;100.00;97490.38;18178441;32;20096;-56
2023/03/30 00:46:38;;;;;;;7.12;1.48;;;;;;;14.60;97.51;97486.41;18178161;32;20404;-57
2023/03/30 00:56:40;;;;;;;10.73;2.55;;;;;;;14.59;99.68;97474.69;18176112;32;20422;-56
2023/03/30 01:06:47;;;;;;;5.80;1.67;;;;;;;14.51;100.00;97486.28;18176940;32;20329;-55
2023/03/30 01:17:12;;;;;;;5.93;1.70;;;;;;;14.41;100.00;97495.44;18176529;32;20062;-58
2023/03/30 01:27:48;;;;;;;4.85;1.33;;;;;;;14.21;100.00;97481.09;18183845;32;20077;-58
2023/03/30 01:37:53;;;;;;;7.00;1.95;;;;;;;13.84;100.00;97481.97;18300931;32;20369;-58
2023/03/30 01:48:30;;;;;;;4.65;1.40;;;;;;;13.52;100.00;97451.75;18300697;32;20413;-58
2023/03/30 01:58:38;;;;;;;6.70;1.90;;;;;;;13.30;100.00;97416.22;18296355;32;20050;-58
2023/03/30 02:08:45;;;;;;;6.07;2.03;;;;;;;13.19;100.00;97393.81;18299703;32;20374;-57
2023/03/30 02:18:47;;;;;;;5.47;1.35;;;;;;;13.17;100.00;97383.25;18298858;32;20059;-58
2023/03/30 02:28:50;;;;;;;5.75;2.10;;;;;;;13.15;100.00;97343.94;18298119;32;20054;-57
2023/03/30 02:39:14;;;;;;;4.10;1.50;;;;;;;13.19;100.00;97331.38;18297813;32;20378;-57
2023/03/30 02:49:40;;;;;;;5.70;2.25;;;;;;;13.13;100.00;97321.69;18297478;32;20130;-57
2023/03/30 02:59:57;;;;;;;8.13;1.87;;;;;;;13.15;100.00;97289.66;18296981;32;20339;-58
2023/03/30 03:10:00;;;;;;;8.63;2.40;;;;;;;13.09;100.00;97288.91;18296440;32;20053;-58
2023/03/30 03:20:03;;;;;;;5.32;1.80;;;;;;;13.04;100.00;97283.56;18296177;32;20088;-56
2023/03/30 03:30:06;;;;;;;5.33;1.93;;;;;;;12.80;100.00;97257.34;18295209;32;20046;-57
2023/03/30 03:40:10;;;;;;;10.80;1.90;;;;;;;12.59;100.00;97256.03;18295123;32;20046;-58
2023/03/30 03:50:13;;;;;;;5.93;1.97;;;;;;;12.45;100.00;97256.75;18294286;32;20343;-57
2023/03/30 04:00:16;;;;;;;7.23;1.70;;;;;;;12.20;100.00;97258.69;18294221;32;20047;-56
2023/03/30 04:10:20;;;;;;;5.20;1.70;;;;;;;12.00;100.00;97245.41;18294260;32;20070;-57
2023/03/30 04:20:24;;;;;;;5.85;2.30;;;;;;;11.93;100.00;97243.00;18293581;32;20434;-57
2023/03/30 04:30:29;;;;;;;8.32;1.73;;;;;;;11.77;100.00;97225.31;18292845;32;20050;-57
2023/03/30 04:40:32;;;;;;;3.37;1.50;;;;;;;11.65;100.00;97233.87;18292873;32;20228;-58
2023/03/30 04:50:35;;;;;;;6.33;1.63;;;;;;;11.57;100.00;97240.72;18292528;32;20058;-57
2023/03/30 05:00:38;;;;;;;5.90;1.73;;;;;;;11.51;100.00;97244.56;18292265;32;20113;-56
2023/03/30 05:10:40;;;;;;;12.47;2.30;;;;;;;11.43;100.00;97256.81;18300937;32;20050;-56
2023/03/30 05:20:43;;;;;;;11.53;2.20;;;;;;;11.38;100.00;97253.38;18301876;32;20058;-57
2023/03/30 05:30:45;;;;;;;7.43;2.20;;;;;;;11.36;100.00;97240.91;18288085;32;20131;-56
2023/03/30 05:40:52;;;;;;;11.10;3.03;;;;;;;11.34;100.00;97234.16;18300861;32;20098;-57
2023/03/30 05:50:55;;;;;;;9.17;2.57;;;;;;;11.32;100.00;97225.53;18286502;32;20073;-57
2023/03/30 06:00:59;;;;;;;11.07;3.40;;;;;;;11.72;100.00;97361.63;18299886;32;20092;-57
2023/03/30 06:11:02;;;;;;;11.33;3.10;;;;;;;11.89;100.00;97401.00;18299382;32;20074;-57
2023/03/30 06:21:07;;;;;;;9.27;2.08;;;;;;;12.26;100.00;97399.59;18298590;32;20065;-57
2023/03/30 06:31:10;;;;;;;10.13;2.30;;;;;;;12.70;100.00;97421.06;18298107;32;20050;-57
2023/03/30 06:41:14;;;;;;;6.32;1.50;;;;;;;13.15;100.00;97447.87;18297749;32;20389;-57
2023/03/30 06:51:17;;;;;;;5.40;1.80;;;;;;;13.56;100.00;97433.75;18297372;32;20173;-57
2023/03/30 07:01:20;;;;;;;7.53;1.92;;;;;;;13.91;100.00;97436.22;18296560;32;20076;-57
2023/03/30 07:11:23;;;;;;;4.47;1.62;;;;;;;14.05;96.46;97438.97;18296635;32;20110;-57
2023/03/30 07:21:26;;;;;;;4.25;1.55;;;;;;;14.34;93.70;97443.34;18296170;32;20068;-58
2023/03/30 07:31:29;;;;;;;4.80;1.48;;;;;;;14.76;90.08;97471.44;18280722;32;20059;-58
2023/03/30 07:41:31;;;;;;;5.97;1.60;;;;;;;15.11;88.71;97481.91;18281541;32;20061;-58
2023/03/30 07:51:34;;;;;;;4.68;1.30;;;;;;;15.18;88.60;97506.81;18281256;32;20113;-56
2023/03/30 08:01:37;;;;;;;3.65;1.30;;;;;;;15.19;83.42;97511.16;18294336;32;20113;-58
2023/03/30 08:11:40;;;;;;;5.45;1.60;;;;;;;15.20;83.06;97524.47;18293419;32;20062;-57
2023/03/30 08:21:43;;;;;;;4.60;1.50;;;;;;;16.07;74.25;97512.75;18279626;32;20101;-57
2023/03/30 08:31:46;;;;;;;5.20;1.95;;;;;;;16.11;79.73;97541.03;18279205;32;20058;-57
2023/03/30 08:42:04;;;;;;;8.63;2.20;;;;;;;15.49;77.69;97585.19;18299708;32;20085;-59
2023/03/30 08:52:18;;;;;;;5.37;1.80;;;;;;;14.51;100.00;97592.37;18303741;32;20053;-58
2023/03/30 09:02:32;;;;;;;7.87;2.30;;;;;;;13.39;100.00;97588.28;18303119;32;20049;-58
2023/03/30 09:12:59;;;;;;;4.85;1.77;;;;;;;13.04;100.00;97569.34;18302519;32;20105;-58
2023/03/30 09:23:02;;;;;;;3.33;1.58;;;;;;;13.56;100.00;97566.84;18302267;32;20074;-58
2023/03/30 09:33:37;;;;;;;4.47;2.07;;;;;;;14.74;100.00;97575.16;18287190;32;20053;-58
2023/03/30 09:43:45;;;;;;;;;;;;;;;15.43;100.00;97584.47;18223437;32;20073;-58
2023/03/30 09:53:59;;;;;;;5.10;1.90;;;;;;;16.17;100.00;97610.72;18300371;32;19991;-58
2023/03/30 10:04:11;;;;;;;5.85;2.40;;;;;;;16.25;100.00;97628.25;18300009;32;20117;-58
2023/03/30 10:14:36;;;;;;;9.88;2.40;;;;;;;16.05;100.00;97656.81;18299476;32;20088;-57
2023/03/30 10:24:48;;;;;;;4.82;1.90;;;;;;;15.39;100.00;97676.91;18298812;32;20090;-58
2023/03/30 10:34:58;;;;;;;7.10;2.60;;;;;;;15.28;100.00;97689.09;18298183;32;20091;-58
2023/03/30 10:45:05;;;;;;;5.82;2.50;;;;;;;15.33;100.00;97696.38;18284081;32;20057;-58
2023/03/30 10:55:17;;;;;;;6.70;2.45;;;;;;;15.13;100.00;97690.19;18297383;32;20081;-58
2023/03/30 11:05:25;;;;;;;6.47;1.75;;;;;;;14.83;100.00;97695.03;18296713;32;20065;-56
2023/03/30 11:16:03;;;;;;;4.53;2.00;;;;;;;15.00;100.00;97715.47;18282738;32;20050;-57
2023/03/30 11:26:11;;;;;;;3.50;1.12;;;;;;;14.87;100.00;97723.28;18230511;32;20426;-56
2023/03/30 11:36:34;;;;;;;5.87;1.25;;;;;;;14.70;100.00;97728.44;18295430;32;20109;-58
2023/03/30 11:46:51;;;;;;;3.58;1.37;;;;;;;14.49;100.00;97764.09;18295276;32;20391;-58
2023/03/30 11:57:16;;;;;;;2.60;1.05;;;;;;;13.74;100.00;97741.09;18294706;32;20383;-58
2023/03/30 12:07:21;;;;;;;4.65;1.52;;;;;;;14.41;100.00;97732.09;18294233;32;20130;-58
2023/03/30 12:17:41;;;;;;;4.95;1.42;;;;;;;15.36;100.00;97733.91;18300988;32;20438;-58
2023/03/30 12:27:57;;;;;;;2.87;1.40;;;;;;;16.33;100.00;97716.78;18304513;32;20109;-58
2023/03/30 12:38:04;;;;;;;3.92;1.27;;;;;;;16.89;100.00;97701.03;18304048;32;20068;-57
2023/03/30 12:48:45;;;;;;;5.00;1.70;;;;;;;17.60;91.70;97670.25;18303746;32;20109;-57
2023/03/30 12:59:04;;;;;;;4.87;1.50;;;;;;;18.42;76.11;97656.09;18269616;32;20572;-58
2023/03/30 13:09:07;;;;;;;3.97;1.10;;;;;;;18.29;84.46;97639.53;18302620;32;20446;-58
2023/03/30 13:19:30;;;;;;;2.97;1.10;;;;;;;18.22;91.82;97622.75;18301736;32;20085;-58
2023/03/30 13:29:33;;;;;;;5.40;1.50;;;;;;;18.69;76.78;97605.69;18288466;32;20054;-57
2023/03/30 13:39:49;;;;;;;3.85;1.20;;;;;;;19.26;69.82;97584.56;18287130;32;20050;-55
2023/03/30 13:50:05;;;;;;;3.40;1.40;;;;;;;19.56;66.55;97568.94;18300685;32;20066;-55
2023/03/30 14:00:32;;;;;;;4.12;1.40;;;;;;;19.94;61.18;97564.53;18300256;32;20062;-55
2023/03/30 14:10:45;;;;;;;;;;;;;;;20.83;57.05;97555.19;18299729;32;20061;-55
2023/03/30 14:20:55;;;;;;;3.95;1.77;;;;;;;20.77;46.54;97540.03;18299522;32;19941;-55
2023/03/30 14:31:10;;;;;;;6.22;2.00;;;;;;;20.91;46.74;97553.47;18284719;32;20054;-55
2023/03/30 14:41:22;;;;;;;3.62;1.45;;;;;;;20.82;45.36;97554.34;18297982;32;20065;-55
2023/03/30 14:51:39;;;;;;;5.90;1.65;;;;;;;21.46;43.73;97565.06;18297718;32;20369;-55
2023/03/30 15:01:42;;;;;;;4.00;1.70;;;;;;;22.31;42.58;97576.28;18297017;32;20054;-52
2023/03/30 15:11:52;;;;;;;3.70;1.90;;;;;;;21.37;40.59;97572.66;18296606;32;20038;-55
2023/03/30 15:22:01;;;;;;;4.82;1.55;;;;;;;20.84;42.57;97553.22;18296423;32;20066;-54
2023/03/30 15:32:06;;;;;;;3.53;1.90;;;;;;;20.17;41.93;97550.44;18295497;32;20054;-55
2023/03/30 15:42:09;;;;;;;3.55;1.67;;;;;;;19.84;42.24;97541.00;18281500;32;20118;-55
2023/03/30 15:52:18;;;;;;;3.33;1.10;;;;;;;19.34;44.37;97547.28;18293859;32;20046;-54
2023/03/30 16:02:34;;;;;;;4.05;1.37;;;;;;;19.11;47.17;97536.59;18280821;32;20062;-54
2023/03/30 16:12:42;;;;;;;4.70;1.42;;;;;;;18.54;49.60;97527.59;18294067;32;20058;-55
2023/03/30 16:22:46;;;;;;;5.75;1.50;;;;;;;18.56;49.93;97524.50;18279879;32;20046;-52
2023/03/30 16:32:49;;;;;;;3.55;1.30;;;;;;;18.53;49.39;97531.44;18279232;32;20062;-53
2023/03/30 16:42:51;;;;;;;2.87;1.42;;;;;;;18.66;47.19;97515.13;18293335;32;20140;-55
2023/03/30 16:52:54;;;;;;;2.67;1.30;;;;;;;18.37;47.48;97517.44;18278732;32;20358;-57
2023/03/30 17:02:57;;;;;;;2.67;1.40;;;;;;;17.66;52.76;97515.03;18298854;32;20434;-55
2023/03/30 17:13:00;;;;;;;5.67;1.70;;;;;;;17.56;56.51;97519.69;18302641;32;20054;-56
2023/03/30 17:23:04;;;;;;;2.13;1.30;;;;;;;17.41;50.29;97522.88;18301165;32;20077;-58
2023/03/30 17:33:11;;;;;;;5.43;1.35;;;;;;;17.04;50.42;97527.78;18301194;32;20490;-56
2023/03/30 17:43:14;;;;;;;2.47;1.17;;;;;;;16.37;51.53;97526.75;18287608;32;20150;-57
2023/03/30 17:53:19;;;;;;;2.60;1.30;;;;;;;15.69;52.72;97540.31;18274064;32;20083;-56
2023/03/30 18:03:28;;;;;;;3.22;1.33;;;;;;;14.83;57.94;97542.59;18300208;32;20432;-55
2023/03/30 18:13:31;;;;;;;4.43;1.42;;;;;;;14.41;59.74;97549.84;18285730;32;20091;-55
2023/03/30 18:23:34;;;;;;;3.42;1.27;;;;;;;13.85;64.35;97538.78;18299275;32;20373;-56
2023/03/30 18:33:38;;;;;;;2.20;1.50;;;;;;;13.39;70.58;97547.56;18298455;32;20433;-57
2023/03/30 18:43:40;;;;;;;3.37;1.37;;;;;;;12.97;77.75;97557.25;18284447;32;20102;-56
2023/03/30 18:53:43;;;;;;;3.03;1.42;;;;;;;12.71;80.16;97562.94;18271271;32;20340;-57
2023/03/30 19:03:46;;;;;;;2.65;1.25;;;;;;;12.68;80.83;97561.59;18297615;32;20106;-57
2023/03/30 19:13:49;;;;;;;4.22;1.50;;;;;;;12.65;85.31;97555.94;18283167;32;20146;-57
2023/03/30 19:23:51;;;;;;;4.00;1.60;;;;;;;12.38;88.59;97547.22;18295802;32;20066;-56
2023/03/30 19:33:54;;;;;;;5.23;1.27;;;;;;;12.15;89.82;97542.53;18281674;32;20102;-54
2023/03/30 19:43:57;;;;;;;3.63;1.40;;;;;;;11.97;93.43;97541.31;18295456;32;20109;-57
2023/03/30 19:54:00;;;;;;;4.73;1.87;;;;;;;11.91;93.76;97534.28;18294750;32;20062;-56
2023/03/30 20:04:03;;;;;;;2.73;1.23;;;;;;;11.94;94.77;97522.91;18280588;32;20113;-57
2023/03/30 20:14:07;;;;;;;3.73;1.83;;;;;;;11.96;97.87;97523.44;18294221;32;20050;-57
2023/03/30 20:24:10;;;;;;;3.97;1.57;;;;;;;11.86;100.00;97506.13;18293556;32;20054;-56
2023/03/30 20:34:14;;;;;;;1.93;1.40;;;;;;;11.78;100.00;97487.78;18295912;32;20093;-56
2023/03/30 20:44:17;;;;;;;5.90;1.70;;;;;;;11.69;100.00;97495.69;18304277;32;20429;-56
2023/03/30 20:54:19;;;;;;;3.00;1.53;;;;;;;11.68;100.00;97487.88;18303670;32;20098;-57
2023/03/30 21:04:22;;;;;;;5.33;1.70;;;;;;;11.59;100.00;97478.72;18303174;32;20102;-55
2023/03/30 21:14:25;;;;;;;3.23;1.63;;;;;;;11.46;100.00;97458.50;18288976;32;20096;-54
2023/03/30 21:24:28;;;;;;;3.27;1.67;;;;;;;11.35;100.00;97463.16;18302113;32;20149;-55
2023/03/30 21:34:30;;;;;;;3.43;1.80;;;;;;;11.32;100.00;97442.06;18301749;32;20366;-57
2023/03/30 21:44:34;;;;;;;5.23;1.90;;;;;;;11.16;100.00;97436.72;18300610;32;20441;-57
2023/03/30 21:54:36;;;;;;;6.03;2.60;;;;;;;11.08;100.00;97423.78;18287128;32;20054;-56
2023/03/30 22:04:42;;;;;;;4.43;1.83;;;;;;;11.12;100.00;97414.03;18300045;32;20066;-56
2023/03/30 22:14:44;;;;;;;6.90;2.33;;;;;;;11.15;100.00;97391.81;18299555;32;20118;-55
2023/03/30 22:24:47;;;;;;;5.87;2.60;;;;;;;11.30;100.00;97380.06;18299387;32;20059;-57
2023/03/30 22:34:50;;;;;;;5.87;2.60;;;;;;;11.68;98.99;97379.53;18298425;32;20163;-55
2023/03/30 22:44:52;;;;;;;4.03;2.20;;;;;;;11.86;99.23;97364.47;18298114;32;20385;-56
2023/03/30 22:54:55;;;;;;;6.33;2.30;;;;;;;11.82;98.05;97347.16;18297347;32;20055;-56
2023/03/30 23:04:57;;;;;;;5.53;2.30;;;;;;;11.74;100.00;97324.22;18297100;32;20074;-56
2023/03/30 23:15:00;;;;;;;6.43;2.67;;;;;;;11.62;100.00;97297.53;18296727;32;20066;-56
2023/03/30 23:25:04;;;;;;;4.10;2.47;;;;;;;11.52;100.00;97279.50;18296452;32;20103;-57
2023/03/30 23:35:07;;;;;;;4.17;2.07;;;;;;;11.41;100.00;97271.72;18295606;32;20084;-57
2023/03/30 23:45:09;;;;;;;6.33;2.50;;;;;;;11.37;100.00;97276.91;18295358;32;20065;-57
2023/03/30 23:55:12;;;;;;;4.97;2.70;;;;;;;11.38;100.00;97356.22;18294818;32;20476;-56
